首页
METAR-TAF:

METAR-TAF

机场 :

Middleton Island, 阿拉斯加州, 美国

纬度: 59-26N, 经度: 146-18W, 海拔: 27米

当前天气观测

该预报发布于41分钟前的22:56 UTC
风速7节,风向
温度 12°C
湿度 94%
气压 1013 hPa
阴天层高于1000英尺

METAR: PAMD 152256Z AUTO 17007KT OVC010 12/11 A2991 RMK AO2 SLP127 T01220106 PWINO $

时间: 15:37 (23:37 UTC)


TAF: 丢失

超过4000个机场的气象观测和天气预报(METAR&TAF报告)。

可查询的气象台以黄色和红色小点在地图上表示。

将鼠标移到小点上方,可查看气象台名称。

然后点击查看天气观测和预报。

如需切换地图:点击带黑十字的绿色按钮放大地图;点击带横线的绿色按钮缩小地图;或者点击绿色箭头查看邻近地区的地图。


METAR-TAF: